sensor_id;sensor_type;location;lat;lon;timestamp;P1;durP1;ratioP1;P2;durP2;ratioP2
61756;SDS011;57225;61.460;24.060;2023-08-30T00:01:15;3.55;;;2.08;;
61756;SDS011;57225;61.460;24.060;2023-08-30T00:03:59;3.60;;;2.10;;
61756;SDS011;57225;61.460;24.060;2023-08-30T00:06:44;4.35;;;2.10;;
61756;SDS011;57225;61.460;24.060;2023-08-30T00:09:28;4.60;;;1.85;;
61756;SDS011;57225;61.460;24.060;2023-08-30T00:12:13;2.53;;;1.85;;
61756;SDS011;57225;61.460;24.060;2023-08-30T00:14:57;3.97;;;2.00;;
61756;SDS011;57225;61.460;24.060;2023-08-30T00:17:41;2.17;;;1.60;;
61756;SDS011;57225;61.460;24.060;2023-08-30T00:20:26;2.80;;;1.95;;
61756;SDS011;57225;61.460;24.060;2023-08-30T00:23:10;4.80;;;1.90;;
61756;SDS011;57225;61.460;24.060;2023-08-30T00:25:55;3.92;;;2.03;;
61756;SDS011;57225;61.460;24.060;2023-08-30T00:28:39;4.82;;;2.17;;
61756;SDS011;57225;61.460;24.060;2023-08-30T00:31:24;4.57;;;2.03;;
61756;SDS011;57225;61.460;24.060;2023-08-30T00:34:08;2.20;;;1.90;;
61756;SDS011;57225;61.460;24.060;2023-08-30T00:36:53;3.15;;;1.98;;
61756;SDS011;57225;61.460;24.060;2023-08-30T00:39:37;2.10;;;1.83;;
61756;SDS011;57225;61.460;24.060;2023-08-30T00:42:22;9.10;;;2.45;;
61756;SDS011;57225;61.460;24.060;2023-08-30T00:45:09;4.32;;;2.03;;
61756;SDS011;57225;61.460;24.060;2023-08-30T00:47:53;6.60;;;2.22;;
61756;SDS011;57225;61.460;24.060;2023-08-30T00:50:38;8.25;;;2.45;;
61756;SDS011;57225;61.460;24.060;2023-08-30T00:53:23;7.65;;;2.65;;
61756;SDS011;57225;61.460;24.060;2023-08-30T00:56:08;5.13;;;3.00;;
61756;SDS011;57225;61.460;24.060;2023-08-30T00:58:56;3.55;;;2.42;;
61756;SDS011;57225;61.460;24.060;2023-08-30T01:01:40;4.35;;;2.50;;
61756;SDS011;57225;61.460;24.060;2023-08-30T01:04:25;4.50;;;2.15;;
61756;SDS011;57225;61.460;24.060;2023-08-30T01:07:10;2.95;;;2.40;;
61756;SDS011;57225;61.460;24.060;2023-08-30T01:09:55;6.55;;;2.55;;
61756;SDS011;57225;61.460;24.060;2023-08-30T01:12:41;3.13;;;2.15;;
61756;SDS011;57225;61.460;24.060;2023-08-30T01:15:29;8.60;;;2.20;;
61756;SDS011;57225;61.460;24.060;2023-08-30T01:18:18;5.95;;;2.30;;
61756;SDS011;57225;61.460;24.060;2023-08-30T01:21:04;3.20;;;2.40;;
61756;SDS011;57225;61.460;24.060;2023-08-30T01:23:56;9.75;;;2.72;;
61756;SDS011;57225;61.460;24.060;2023-08-30T01:29:44;5.90;;;2.20;;
61756;SDS011;57225;61.460;24.060;2023-08-30T01:32:30;7.13;;;2.60;;
61756;SDS011;57225;61.460;24.060;2023-08-30T01:35:15;7.88;;;2.55;;
61756;SDS011;57225;61.460;24.060;2023-08-30T01:38:03;6.47;;;2.65;;
61756;SDS011;57225;61.460;24.060;2023-08-30T01:40:48;3.40;;;2.15;;
61756;SDS011;57225;61.460;24.060;2023-08-30T01:43:34;4.97;;;2.20;;
61756;SDS011;57225;61.460;24.060;2023-08-30T01:46:20;7.90;;;2.40;;
61756;SDS011;57225;61.460;24.060;2023-08-30T01:49:06;5.85;;;1.95;;
61756;SDS011;57225;61.460;24.060;2023-08-30T01:51:52;7.47;;;2.80;;
61756;SDS011;57225;61.460;24.060;2023-08-30T01:54:37;3.58;;;2.00;;
61756;SDS011;57225;61.460;24.060;2023-08-30T01:57:24;4.20;;;2.00;;
61756;SDS011;57225;61.460;24.060;2023-08-30T02:00:09;3.80;;;2.20;;
61756;SDS011;57225;61.460;24.060;2023-08-30T02:02:54;4.70;;;2.22;;
61756;SDS011;57225;61.460;24.060;2023-08-30T02:05:44;6.22;;;2.85;;
61756;SDS011;57225;61.460;24.060;2023-08-30T02:08:58;5.18;;;2.50;;
61756;SDS011;57225;61.460;24.060;2023-08-30T02:11:48;3.63;;;2.60;;
61756;SDS011;57225;61.460;24.060;2023-08-30T02:14:37;5.47;;;2.75;;
61756;SDS011;57225;61.460;24.060;2023-08-30T02:17:23;3.40;;;2.38;;
61756;SDS011;57225;61.460;24.060;2023-08-30T02:20:08;2.97;;;1.88;;
61756;SDS011;57225;61.460;24.060;2023-08-30T02:22:54;3.33;;;2.13;;
61756;SDS011;57225;61.460;24.060;2023-08-30T02:25:42;4.05;;;1.85;;
61756;SDS011;57225;61.460;24.060;2023-08-30T02:28:26;4.00;;;2.15;;
61756;SDS011;57225;61.460;24.060;2023-08-30T02:31:11;4.60;;;2.30;;
61756;SDS011;57225;61.460;24.060;2023-08-30T02:33:55;3.88;;;2.00;;
61756;SDS011;57225;61.460;24.060;2023-08-30T02:36:40;4.40;;;1.83;;
61756;SDS011;57225;61.460;24.060;2023-08-30T02:39:24;4.13;;;2.10;;
61756;SDS011;57225;61.460;24.060;2023-08-30T02:42:09;2.60;;;2.00;;
61756;SDS011;57225;61.460;24.060;2023-08-30T02:44:53;4.50;;;2.30;;
61756;SDS011;57225;61.460;24.060;2023-08-30T02:47:38;3.75;;;2.00;;
61756;SDS011;57225;61.460;24.060;2023-08-30T02:50:23;9.65;;;3.55;;
61756;SDS011;57225;61.460;24.060;2023-08-30T02:53:08;7.88;;;2.90;;
61756;SDS011;57225;61.460;24.060;2023-08-30T02:55:52;8.10;;;2.67;;
61756;SDS011;57225;61.460;24.060;2023-08-30T02:58:39;4.65;;;2.50;;
61756;SDS011;57225;61.460;24.060;2023-08-30T03:01:25;20.63;;;4.00;;
61756;SDS011;57225;61.460;24.060;2023-08-30T03:04:09;12.55;;;4.10;;
61756;SDS011;57225;61.460;24.060;2023-08-30T03:06:54;141.32;;;6.10;;
61756;SDS011;57225;61.460;24.060;2023-08-30T03:09:38;68.32;;;5.43;;
61756;SDS011;57225;61.460;24.060;2023-08-30T03:12:23;8.90;;;4.68;;
61756;SDS011;57225;61.460;24.060;2023-08-30T03:15:07;64.40;;;6.57;;
61756;SDS011;57225;61.460;24.060;2023-08-30T03:17:52;25.60;;;6.20;;
61756;SDS011;57225;61.460;24.060;2023-08-30T03:20:36;56.73;;;6.17;;
61756;SDS011;57225;61.460;24.060;2023-08-30T03:23:20;18.08;;;6.85;;
61756;SDS011;57225;61.460;24.060;2023-08-30T03:26:12;17.42;;;7.57;;
61756;SDS011;57225;61.460;24.060;2023-08-30T03:28:57;21.20;;;7.85;;
61756;SDS011;57225;61.460;24.060;2023-08-30T03:31:41;8.50;;;5.75;;
61756;SDS011;57225;61.460;24.060;2023-08-30T03:34:27;10.43;;;6.20;;
61756;SDS011;57225;61.460;24.060;2023-08-30T03:37:13;12.63;;;7.90;;
61756;SDS011;57225;61.460;24.060;2023-08-30T03:39:58;12.63;;;6.35;;
61756;SDS011;57225;61.460;24.060;2023-08-30T03:42:42;19.42;;;6.20;;
61756;SDS011;57225;61.460;24.060;2023-08-30T03:45:27;22.15;;;7.50;;
61756;SDS011;57225;61.460;24.060;2023-08-30T03:48:11;10.75;;;6.30;;
61756;SDS011;57225;61.460;24.060;2023-08-30T03:50:56;16.08;;;7.68;;
61756;SDS011;57225;61.460;24.060;2023-08-30T03:53:41;10.50;;;6.85;;
61756;SDS011;57225;61.460;24.060;2023-08-30T03:56:25;12.45;;;6.85;;
61756;SDS011;57225;61.460;24.060;2023-08-30T03:59:10;12.00;;;6.90;;
61756;SDS011;57225;61.460;24.060;2023-08-30T04:01:55;8.32;;;6.72;;
61756;SDS011;57225;61.460;24.060;2023-08-30T04:04:40;11.65;;;6.90;;
61756;SDS011;57225;61.460;24.060;2023-08-30T04:07:24;10.20;;;7.05;;
61756;SDS011;57225;61.460;24.060;2023-08-30T04:10:09;35.05;;;8.65;;
61756;SDS011;57225;61.460;24.060;2023-08-30T04:12:54;10.90;;;7.25;;
61756;SDS011;57225;61.460;24.060;2023-08-30T04:15:38;85.68;;;9.23;;
61756;SDS011;57225;61.460;24.060;2023-08-30T04:18:23;10.75;;;6.40;;
61756;SDS011;57225;61.460;24.060;2023-08-30T04:21:07;9.02;;;6.68;;
61756;SDS011;57225;61.460;24.060;2023-08-30T04:23:52;53.90;;;8.13;;
61756;SDS011;57225;61.460;24.060;2023-08-30T04:26:37;8.13;;;6.55;;
61756;SDS011;57225;61.460;24.060;2023-08-30T04:29:21;23.23;;;7.30;;
61756;SDS011;57225;61.460;24.060;2023-08-30T04:32:06;7.38;;;5.40;;
61756;SDS011;57225;61.460;24.060;2023-08-30T04:34:50;20.83;;;6.50;;
61756;SDS011;57225;61.460;24.060;2023-08-30T04:37:35;82.22;;;7.10;;
61756;SDS011;57225;61.460;24.060;2023-08-30T04:40:19;9.82;;;4.90;;
61756;SDS011;57225;61.460;24.060;2023-08-30T04:43:03;25.70;;;8.02;;
61756;SDS011;57225;61.460;24.060;2023-08-30T04:45:48;14.20;;;7.25;;
61756;SDS011;57225;61.460;24.060;2023-08-30T04:48:32;16.92;;;8.18;;
61756;SDS011;57225;61.460;24.060;2023-08-30T04:51:17;23.85;;;8.77;;
61756;SDS011;57225;61.460;24.060;2023-08-30T04:54:01;16.45;;;7.55;;
61756;SDS011;57225;61.460;24.060;2023-08-30T04:56:46;13.45;;;7.18;;
61756;SDS011;57225;61.460;24.060;2023-08-30T04:59:30;10.70;;;7.07;;
61756;SDS011;57225;61.460;24.060;2023-08-30T05:02:15;10.93;;;7.03;;
61756;SDS011;57225;61.460;24.060;2023-08-30T05:04:59;11.57;;;5.60;;
61756;SDS011;57225;61.460;24.060;2023-08-30T05:07:44;13.40;;;6.00;;
61756;SDS011;57225;61.460;24.060;2023-08-30T05:10:28;8.30;;;4.70;;
61756;SDS011;57225;61.460;24.060;2023-08-30T05:13:15;13.48;;;6.70;;
61756;SDS011;57225;61.460;24.060;2023-08-30T05:16:00;11.23;;;6.60;;
61756;SDS011;57225;61.460;24.060;2023-08-30T05:18:44;12.10;;;6.68;;
61756;SDS011;57225;61.460;24.060;2023-08-30T05:21:31;11.23;;;6.45;;
61756;SDS011;57225;61.460;24.060;2023-08-30T05:24:15;9.48;;;5.78;;
61756;SDS011;57225;61.460;24.060;2023-08-30T05:27:00;9.00;;;4.45;;
61756;SDS011;57225;61.460;24.060;2023-08-30T05:29:45;12.05;;;4.07;;
61756;SDS011;57225;61.460;24.060;2023-08-30T05:32:29;7.88;;;4.47;;
61756;SDS011;57225;61.460;24.060;2023-08-30T05:35:15;7.45;;;5.10;;
61756;SDS011;57225;61.460;24.060;2023-08-30T05:37:59;8.43;;;3.88;;
61756;SDS011;57225;61.460;24.060;2023-08-30T05:40:44;10.85;;;4.30;;
61756;SDS011;57225;61.460;24.060;2023-08-30T05:43:29;7.72;;;5.00;;
61756;SDS011;57225;61.460;24.060;2023-08-30T05:46:13;9.48;;;5.57;;
61756;SDS011;57225;61.460;24.060;2023-08-30T05:48:59;9.05;;;5.10;;
61756;SDS011;57225;61.460;24.060;2023-08-30T05:51:45;10.57;;;5.75;;
61756;SDS011;57225;61.460;24.060;2023-08-30T05:54:31;11.25;;;5.30;;
61756;SDS011;57225;61.460;24.060;2023-08-30T05:57:17;5.95;;;3.97;;
61756;SDS011;57225;61.460;24.060;2023-08-30T06:00:02;5.43;;;3.72;;
61756;SDS011;57225;61.460;24.060;2023-08-30T06:02:57;8.90;;;4.03;;
61756;SDS011;57225;61.460;24.060;2023-08-30T06:05:50;7.50;;;3.70;;
61756;SDS011;57225;61.460;24.060;2023-08-30T06:08:35;8.20;;;4.40;;
61756;SDS011;57225;61.460;24.060;2023-08-30T06:11:19;7.40;;;3.40;;
61756;SDS011;57225;61.460;24.060;2023-08-30T06:14:04;3.80;;;3.08;;
61756;SDS011;57225;61.460;24.060;2023-08-30T06:16:48;5.07;;;3.30;;
61756;SDS011;57225;61.460;24.060;2023-08-30T06:19:33;8.10;;;3.47;;
61756;SDS011;57225;61.460;24.060;2023-08-30T06:22:17;4.03;;;3.10;;
61756;SDS011;57225;61.460;24.060;2023-08-30T06:25:02;9.98;;;3.63;;
61756;SDS011;57225;61.460;24.060;2023-08-30T06:27:58;4.50;;;3.00;;
61756;SDS011;57225;61.460;24.060;2023-08-30T06:30:45;5.68;;;3.00;;
61756;SDS011;57225;61.460;24.060;2023-08-30T06:33:29;6.72;;;2.92;;
61756;SDS011;57225;61.460;24.060;2023-08-30T06:36:14;6.13;;;2.60;;
61756;SDS011;57225;61.460;24.060;2023-08-30T06:39:01;5.10;;;3.03;;
61756;SDS011;57225;61.460;24.060;2023-08-30T06:41:45;4.93;;;2.65;;
61756;SDS011;57225;61.460;24.060;2023-08-30T06:44:29;4.88;;;2.50;;
61756;SDS011;57225;61.460;24.060;2023-08-30T06:47:14;5.72;;;2.70;;
61756;SDS011;57225;61.460;24.060;2023-08-30T06:49:59;6.38;;;2.45;;
61756;SDS011;57225;61.460;24.060;2023-08-30T06:52:44;5.90;;;2.70;;
61756;SDS011;57225;61.460;24.060;2023-08-30T06:55:28;7.82;;;2.90;;
61756;SDS011;57225;61.460;24.060;2023-08-30T06:58:13;6.47;;;2.67;;
61756;SDS011;57225;61.460;24.060;2023-08-30T07:00:57;8.32;;;2.63;;
61756;SDS011;57225;61.460;24.060;2023-08-30T07:03:42;5.30;;;3.20;;
61756;SDS011;57225;61.460;24.060;2023-08-30T07:06:27;11.27;;;2.85;;
61756;SDS011;57225;61.460;24.060;2023-08-30T07:09:14;4.93;;;2.55;;
61756;SDS011;57225;61.460;24.060;2023-08-30T07:12:00;4.97;;;2.67;;
61756;SDS011;57225;61.460;24.060;2023-08-30T07:14:44;2.70;;;1.92;;
61756;SDS011;57225;61.460;24.060;2023-08-30T07:17:29;3.20;;;2.10;;
61756;SDS011;57225;61.460;24.060;2023-08-30T07:20:13;3.17;;;2.22;;
61756;SDS011;57225;61.460;24.060;2023-08-30T07:22:58;6.43;;;2.42;;
61756;SDS011;57225;61.460;24.060;2023-08-30T07:25:42;3.15;;;1.90;;
61756;SDS011;57225;61.460;24.060;2023-08-30T07:28:27;2.35;;;1.70;;
61756;SDS011;57225;61.460;24.060;2023-08-30T07:31:11;4.03;;;1.90;;
61756;SDS011;57225;61.460;24.060;2023-08-30T07:33:59;1.90;;;1.70;;
61756;SDS011;57225;61.460;24.060;2023-08-30T07:36:43;4.80;;;2.15;;
61756;SDS011;57225;61.460;24.060;2023-08-30T07:39:28;4.68;;;2.13;;
61756;SDS011;57225;61.460;24.060;2023-08-30T07:42:13;4.80;;;1.90;;
61756;SDS011;57225;61.460;24.060;2023-08-30T07:44:58;2.22;;;1.60;;
61756;SDS011;57225;61.460;24.060;2023-08-30T07:47:42;10.18;;;2.10;;
61756;SDS011;57225;61.460;24.060;2023-08-30T07:50:27;5.82;;;1.70;;
61756;SDS011;57225;61.460;24.060;2023-08-30T07:53:11;3.70;;;2.00;;
61756;SDS011;57225;61.460;24.060;2023-08-30T07:55:56;4.35;;;2.03;;
61756;SDS011;57225;61.460;24.060;2023-08-30T07:58:41;2.88;;;1.80;;
61756;SDS011;57225;61.460;24.060;2023-08-30T08:01:26;5.03;;;2.00;;
61756;SDS011;57225;61.460;24.060;2023-08-30T08:04:10;3.90;;;2.10;;
61756;SDS011;57225;61.460;24.060;2023-08-30T08:06:55;3.30;;;2.05;;
61756;SDS011;57225;61.460;24.060;2023-08-30T08:09:40;3.67;;;1.90;;
61756;SDS011;57225;61.460;24.060;2023-08-30T08:12:25;3.30;;;2.15;;
61756;SDS011;57225;61.460;24.060;2023-08-30T08:15:10;2.92;;;1.67;;
61756;SDS011;57225;61.460;24.060;2023-08-30T08:17:55;5.65;;;2.70;;
61756;SDS011;57225;61.460;24.060;2023-08-30T08:20:39;4.55;;;1.92;;
61756;SDS011;57225;61.460;24.060;2023-08-30T08:23:24;5.40;;;2.15;;
61756;SDS011;57225;61.460;24.060;2023-08-30T08:26:08;5.07;;;1.95;;
61756;SDS011;57225;61.460;24.060;2023-08-30T08:28:53;4.30;;;2.13;;
61756;SDS011;57225;61.460;24.060;2023-08-30T08:31:39;6.43;;;2.30;;
61756;SDS011;57225;61.460;24.060;2023-08-30T08:34:23;5.20;;;2.30;;
61756;SDS011;57225;61.460;24.060;2023-08-30T08:37:08;4.55;;;2.10;;
61756;SDS011;57225;61.460;24.060;2023-08-30T08:39:52;5.28;;;2.30;;
61756;SDS011;57225;61.460;24.060;2023-08-30T08:42:37;5.53;;;2.15;;
61756;SDS011;57225;61.460;24.060;2023-08-30T08:45:21;4.68;;;2.22;;
61756;SDS011;57225;61.460;24.060;2023-08-30T08:48:06;5.65;;;2.28;;
61756;SDS011;57225;61.460;24.060;2023-08-30T08:50:51;6.25;;;2.53;;
61756;SDS011;57225;61.460;24.060;2023-08-30T08:53:35;7.32;;;2.35;;
61756;SDS011;57225;61.460;24.060;2023-08-30T08:56:21;3.40;;;2.00;;
61756;SDS011;57225;61.460;24.060;2023-08-30T08:59:05;5.07;;;2.10;;
61756;SDS011;57225;61.460;24.060;2023-08-30T09:01:51;5.10;;;2.15;;
61756;SDS011;57225;61.460;24.060;2023-08-30T09:04:37;4.95;;;2.08;;
61756;SDS011;57225;61.460;24.060;2023-08-30T09:07:24;4.47;;;2.22;;
61756;SDS011;57225;61.460;24.060;2023-08-30T09:10:09;6.40;;;2.22;;
61756;SDS011;57225;61.460;24.060;2023-08-30T09:12:54;10.70;;;2.08;;
61756;SDS011;57225;61.460;24.060;2023-08-30T09:15:39;11.27;;;2.83;;
61756;SDS011;57225;61.460;24.060;2023-08-30T09:18:23;6.07;;;2.20;;
61756;SDS011;57225;61.460;24.060;2023-08-30T09:21:11;1.88;;;1.60;;
61756;SDS011;57225;61.460;24.060;2023-08-30T09:23:56;7.43;;;2.20;;
61756;SDS011;57225;61.460;24.060;2023-08-30T09:26:51;4.93;;;1.90;;
61756;SDS011;57225;61.460;24.060;2023-08-30T09:29:37;7.88;;;1.88;;
61756;SDS011;57225;61.460;24.060;2023-08-30T09:32:21;25.85;;;2.75;;
61756;SDS011;57225;61.460;24.060;2023-08-30T09:35:06;7.43;;;2.38;;
61756;SDS011;57225;61.460;24.060;2023-08-30T09:37:51;27.92;;;2.97;;
61756;SDS011;57225;61.460;24.060;2023-08-30T09:40:35;6.07;;;2.03;;
61756;SDS011;57225;61.460;24.060;2023-08-30T09:43:20;5.25;;;2.20;;
61756;SDS011;57225;61.460;24.060;2023-08-30T09:46:07;7.82;;;2.05;;
61756;SDS011;57225;61.460;24.060;2023-08-30T09:48:53;4.63;;;2.20;;
61756;SDS011;57225;61.460;24.060;2023-08-30T09:51:39;15.80;;;2.72;;
61756;SDS011;57225;61.460;24.060;2023-08-30T09:54:25;11.80;;;2.38;;
61756;SDS011;57225;61.460;24.060;2023-08-30T09:57:12;5.80;;;2.05;;
61756;SDS011;57225;61.460;24.060;2023-08-30T09:59:58;5.40;;;2.10;;
61756;SDS011;57225;61.460;24.060;2023-08-30T10:02:59;11.57;;;2.90;;
61756;SDS011;57225;61.460;24.060;2023-08-30T10:05:57;4.97;;;2.20;;
61756;SDS011;57225;61.460;24.060;2023-08-30T10:08:44;3.20;;;2.00;;
61756;SDS011;57225;61.460;24.060;2023-08-30T10:11:34;4.90;;;2.15;;
61756;SDS011;57225;61.460;24.060;2023-08-30T10:14:19;3.45;;;2.42;;
61756;SDS011;57225;61.460;24.060;2023-08-30T10:17:04;12.88;;;2.50;;
61756;SDS011;57225;61.460;24.060;2023-08-30T10:19:52;4.80;;;2.20;;
61756;SDS011;57225;61.460;24.060;2023-08-30T10:22:39;3.92;;;2.10;;
61756;SDS011;57225;61.460;24.060;2023-08-30T10:25:26;6.30;;;2.30;;
61756;SDS011;57225;61.460;24.060;2023-08-30T10:28:13;2.70;;;2.10;;
61756;SDS011;57225;61.460;24.060;2023-08-30T10:30:59;3.22;;;2.10;;
61756;SDS011;57225;61.460;24.060;2023-08-30T10:33:49;4.70;;;2.22;;
61756;SDS011;57225;61.460;24.060;2023-08-30T10:36:36;4.65;;;2.20;;
61756;SDS011;57225;61.460;24.060;2023-08-30T10:39:26;5.07;;;2.20;;
61756;SDS011;57225;61.460;24.060;2023-08-30T10:42:21;4.85;;;2.08;;
61756;SDS011;57225;61.460;24.060;2023-08-30T10:45:06;3.10;;;2.03;;
61756;SDS011;57225;61.460;24.060;2023-08-30T10:47:54;2.10;;;1.90;;
61756;SDS011;57225;61.460;24.060;2023-08-30T10:50:40;12.77;;;2.60;;
61756;SDS011;57225;61.460;24.060;2023-08-30T10:53:31;12.23;;;2.95;;
61756;SDS011;57225;61.460;24.060;2023-08-30T10:56:15;2.40;;;2.00;;
61756;SDS011;57225;61.460;24.060;2023-08-30T10:59:02;5.65;;;2.05;;
61756;SDS011;57225;61.460;24.060;2023-08-30T11:01:47;3.67;;;1.88;;
61756;SDS011;57225;61.460;24.060;2023-08-30T11:04:32;4.38;;;1.88;;
61756;SDS011;57225;61.460;24.060;2023-08-30T11:07:16;5.32;;;1.95;;
61756;SDS011;57225;61.460;24.060;2023-08-30T11:10:05;3.25;;;2.30;;
61756;SDS011;57225;61.460;24.060;2023-08-30T11:12:50;5.23;;;2.47;;
61756;SDS011;57225;61.460;24.060;2023-08-30T11:15:35;3.60;;;2.20;;
61756;SDS011;57225;61.460;24.060;2023-08-30T11:18:20;3.90;;;2.15;;
61756;SDS011;57225;61.460;24.060;2023-08-30T11:21:04;3.47;;;2.00;;
61756;SDS011;57225;61.460;24.060;2023-08-30T11:23:51;4.20;;;2.08;;
61756;SDS011;57225;61.460;24.060;2023-08-30T11:26:35;3.85;;;1.80;;
61756;SDS011;57225;61.460;24.060;2023-08-30T11:29:19;4.30;;;2.20;;
61756;SDS011;57225;61.460;24.060;2023-08-30T11:32:04;2.92;;;2.22;;
61756;SDS011;57225;61.460;24.060;2023-08-30T11:34:55;3.65;;;2.50;;
61756;SDS011;57225;61.460;24.060;2023-08-30T11:37:41;6.47;;;2.50;;
61756;SDS011;57225;61.460;24.060;2023-08-30T11:40:27;3.90;;;2.50;;
61756;SDS011;57225;61.460;24.060;2023-08-30T11:43:11;5.78;;;2.58;;
61756;SDS011;57225;61.460;24.060;2023-08-30T11:45:56;3.72;;;2.45;;
61756;SDS011;57225;61.460;24.060;2023-08-30T11:48:41;5.10;;;2.33;;
61756;SDS011;57225;61.460;24.060;2023-08-30T11:51:26;5.72;;;2.53;;
61756;SDS011;57225;61.460;24.060;2023-08-30T11:54:11;5.50;;;2.70;;
61756;SDS011;57225;61.460;24.060;2023-08-30T11:56:56;7.30;;;2.88;;
61756;SDS011;57225;61.460;24.060;2023-08-30T11:59:40;3.47;;;2.60;;
61756;SDS011;57225;61.460;24.060;2023-08-30T12:02:24;6.45;;;2.42;;
61756;SDS011;57225;61.460;24.060;2023-08-30T12:05:12;3.55;;;2.30;;
61756;SDS011;57225;61.460;24.060;2023-08-30T12:07:57;3.03;;;2.35;;
61756;SDS011;57225;61.460;24.060;2023-08-30T12:10:41;5.63;;;2.50;;
61756;SDS011;57225;61.460;24.060;2023-08-30T12:13:26;5.53;;;2.38;;
61756;SDS011;57225;61.460;24.060;2023-08-30T12:16:15;5.65;;;2.70;;
61756;SDS011;57225;61.460;24.060;2023-08-30T12:19:11;7.03;;;2.60;;
61756;SDS011;57225;61.460;24.060;2023-08-30T12:22:04;3.47;;;2.40;;
61756;SDS011;57225;61.460;24.060;2023-08-30T12:24:50;6.32;;;2.53;;
61756;SDS011;57225;61.460;24.060;2023-08-30T12:27:35;4.03;;;2.70;;
61756;SDS011;57225;61.460;24.060;2023-08-30T12:30:19;3.72;;;2.70;;
61756;SDS011;57225;61.460;24.060;2023-08-30T12:33:04;3.83;;;2.47;;
61756;SDS011;57225;61.460;24.060;2023-08-30T12:35:48;4.10;;;2.28;;
61756;SDS011;57225;61.460;24.060;2023-08-30T12:38:33;4.50;;;2.65;;
61756;SDS011;57225;61.460;24.060;2023-08-30T12:41:18;5.63;;;2.97;;
61756;SDS011;57225;61.460;24.060;2023-08-30T12:44:07;4.20;;;2.70;;
61756;SDS011;57225;61.460;24.060;2023-08-30T12:46:52;4.43;;;2.72;;
61756;SDS011;57225;61.460;24.060;2023-08-30T12:49:36;3.72;;;2.67;;
61756;SDS011;57225;61.460;24.060;2023-08-30T12:52:21;3.17;;;2.42;;
61756;SDS011;57225;61.460;24.060;2023-08-30T12:55:05;6.60;;;2.90;;
61756;SDS011;57225;61.460;24.060;2023-08-30T12:57:50;4.07;;;2.60;;
61756;SDS011;57225;61.460;24.060;2023-08-30T13:00:35;4.47;;;2.97;;
61756;SDS011;57225;61.460;24.060;2023-08-30T13:03:19;4.50;;;2.90;;
61756;SDS011;57225;61.460;24.060;2023-08-30T13:06:04;6.35;;;2.80;;
61756;SDS011;57225;61.460;24.060;2023-08-30T13:08:48;4.53;;;3.03;;
61756;SDS011;57225;61.460;24.060;2023-08-30T13:11:33;5.65;;;3.45;;
61756;SDS011;57225;61.460;24.060;2023-08-30T13:14:17;4.38;;;3.00;;
61756;SDS011;57225;61.460;24.060;2023-08-30T13:17:02;5.22;;;2.85;;
61756;SDS011;57225;61.460;24.060;2023-08-30T13:19:46;6.15;;;3.58;;
61756;SDS011;57225;61.460;24.060;2023-08-30T13:22:31;3.65;;;3.13;;
61756;SDS011;57225;61.460;24.060;2023-08-30T13:25:16;4.38;;;3.22;;
61756;SDS011;57225;61.460;24.060;2023-08-30T13:28:00;8.05;;;3.95;;
61756;SDS011;57225;61.460;24.060;2023-08-30T13:30:45;5.65;;;3.80;;
61756;SDS011;57225;61.460;24.060;2023-08-30T13:33:30;8.60;;;3.63;;
61756;SDS011;57225;61.460;24.060;2023-08-30T13:36:14;5.50;;;3.80;;
61756;SDS011;57225;61.460;24.060;2023-08-30T13:38:59;5.50;;;3.75;;
61756;SDS011;57225;61.460;24.060;2023-08-30T13:41:43;6.95;;;4.10;;
61756;SDS011;57225;61.460;24.060;2023-08-30T13:44:30;4.50;;;3.45;;
61756;SDS011;57225;61.460;24.060;2023-08-30T13:47:15;7.05;;;4.38;;
61756;SDS011;57225;61.460;24.060;2023-08-30T13:50:00;6.28;;;4.20;;
61756;SDS011;57225;61.460;24.060;2023-08-30T13:52:44;5.78;;;4.43;;
61756;SDS011;57225;61.460;24.060;2023-08-30T13:55:29;6.63;;;4.07;;
61756;SDS011;57225;61.460;24.060;2023-08-30T13:58:15;6.38;;;3.67;;
61756;SDS011;57225;61.460;24.060;2023-08-30T14:00:59;6.68;;;3.90;;
61756;SDS011;57225;61.460;24.060;2023-08-30T14:03:44;4.82;;;4.03;;
61756;SDS011;57225;61.460;24.060;2023-08-30T14:06:29;9.63;;;4.20;;
61756;SDS011;57225;61.460;24.060;2023-08-30T14:09:13;4.88;;;3.60;;
61756;SDS011;57225;61.460;24.060;2023-08-30T14:11:58;8.48;;;3.72;;
61756;SDS011;57225;61.460;24.060;2023-08-30T14:14:42;5.10;;;3.80;;
61756;SDS011;57225;61.460;24.060;2023-08-30T14:17:27;7.05;;;3.60;;
61756;SDS011;57225;61.460;24.060;2023-08-30T14:20:11;4.70;;;3.83;;
61756;SDS011;57225;61.460;24.060;2023-08-30T14:22:56;4.25;;;3.85;;
61756;SDS011;57225;61.460;24.060;2023-08-30T14:25:40;6.25;;;3.65;;
61756;SDS011;57225;61.460;24.060;2023-08-30T14:28:25;5.43;;;4.07;;
61756;SDS011;57225;61.460;24.060;2023-08-30T14:31:10;4.85;;;4.32;;
61756;SDS011;57225;61.460;24.060;2023-08-30T14:33:56;5.20;;;3.55;;
61756;SDS011;57225;61.460;24.060;2023-08-30T14:36:43;8.20;;;4.47;;
61756;SDS011;57225;61.460;24.060;2023-08-30T14:39:29;7.30;;;4.30;;
61756;SDS011;57225;61.460;24.060;2023-08-30T14:42:14;5.32;;;4.00;;
61756;SDS011;57225;61.460;24.060;2023-08-30T14:44:58;5.75;;;4.43;;
61756;SDS011;57225;61.460;24.060;2023-08-30T14:47:42;7.50;;;4.47;;
61756;SDS011;57225;61.460;24.060;2023-08-30T14:50:27;5.53;;;4.30;;
61756;SDS011;57225;61.460;24.060;2023-08-30T14:53:11;6.32;;;3.88;;
61756;SDS011;57225;61.460;24.060;2023-08-30T14:55:56;8.40;;;3.90;;
61756;SDS011;57225;61.460;24.060;2023-08-30T14:58:40;7.15;;;3.92;;
61756;SDS011;57225;61.460;24.060;2023-08-30T15:01:25;8.05;;;4.15;;
61756;SDS011;57225;61.460;24.060;2023-08-30T15:04:09;5.70;;;3.60;;
61756;SDS011;57225;61.460;24.060;2023-08-30T15:06:54;7.25;;;4.22;;
61756;SDS011;57225;61.460;24.060;2023-08-30T15:09:38;6.95;;;3.90;;
61756;SDS011;57225;61.460;24.060;2023-08-30T15:12:23;6.63;;;4.55;;
61756;SDS011;57225;61.460;24.060;2023-08-30T15:15:07;5.55;;;3.92;;
61756;SDS011;57225;61.460;24.060;2023-08-30T15:17:53;6.53;;;4.80;;
61756;SDS011;57225;61.460;24.060;2023-08-30T15:20:38;6.35;;;4.00;;
61756;SDS011;57225;61.460;24.060;2023-08-30T15:23:22;5.78;;;4.32;;
61756;SDS011;57225;61.460;24.060;2023-08-30T15:26:07;3.80;;;3.45;;
61756;SDS011;57225;61.460;24.060;2023-08-30T15:28:53;5.35;;;3.70;;
61756;SDS011;57225;61.460;24.060;2023-08-30T15:31:37;4.40;;;3.80;;
61756;SDS011;57225;61.460;24.060;2023-08-30T15:34:22;4.22;;;3.72;;
61756;SDS011;57225;61.460;24.060;2023-08-30T15:37:06;3.95;;;3.55;;
61756;SDS011;57225;61.460;24.060;2023-08-30T15:39:57;5.07;;;3.28;;
61756;SDS011;57225;61.460;24.060;2023-08-30T15:42:43;3.95;;;3.50;;
61756;SDS011;57225;61.460;24.060;2023-08-30T15:45:27;4.30;;;3.50;;
61756;SDS011;57225;61.460;24.060;2023-08-30T15:48:13;5.05;;;3.67;;
61756;SDS011;57225;61.460;24.060;2023-08-30T15:50:57;3.85;;;3.35;;
61756;SDS011;57225;61.460;24.060;2023-08-30T15:53:42;3.33;;;3.03;;
61756;SDS011;57225;61.460;24.060;2023-08-30T15:56:26;3.47;;;3.10;;
61756;SDS011;57225;61.460;24.060;2023-08-30T15:59:11;3.10;;;2.80;;
61756;SDS011;57225;61.460;24.060;2023-08-30T16:01:55;4.28;;;3.03;;
61756;SDS011;57225;61.460;24.060;2023-08-30T16:04:39;3.72;;;3.10;;
61756;SDS011;57225;61.460;24.060;2023-08-30T16:07:24;4.50;;;2.95;;
61756;SDS011;57225;61.460;24.060;2023-08-30T16:10:08;3.42;;;2.95;;
61756;SDS011;57225;61.460;24.060;2023-08-30T16:12:53;3.90;;;2.70;;
61756;SDS011;57225;61.460;24.060;2023-08-30T16:15:38;4.32;;;2.78;;
61756;SDS011;57225;61.460;24.060;2023-08-30T16:18:23;3.85;;;3.25;;
61756;SDS011;57225;61.460;24.060;2023-08-30T16:21:07;3.72;;;2.88;;
61756;SDS011;57225;61.460;24.060;2023-08-30T16:23:52;4.00;;;2.90;;